sensor_id;sensor_type;location;lat;lon;timestamp;P1;durP1;ratioP1;P2;durP2;ratioP2
6029;SDS011;3043;42.682;23.376;2023-02-13T00:01:16;68.47;;;36.13;;
6029;SDS011;3043;42.682;23.376;2023-02-13T00:03:42;69.07;;;36.70;;
6029;SDS011;3043;42.682;23.376;2023-02-13T00:06:08;64.17;;;34.60;;
6029;SDS011;3043;42.682;23.376;2023-02-13T00:08:34;63.60;;;33.83;;
6029;SDS011;3043;42.682;23.376;2023-02-13T00:10:59;63.60;;;35.23;;
6029;SDS011;3043;42.682;23.376;2023-02-13T00:13:25;71.07;;;35.83;;
6029;SDS011;3043;42.682;23.376;2023-02-13T00:15:57;66.13;;;35.23;;
6029;SDS011;3043;42.682;23.376;2023-02-13T00:18:24;68.63;;;35.60;;
6029;SDS011;3043;42.682;23.376;2023-02-13T00:21:00;61.17;;;33.97;;
6029;SDS011;3043;42.682;23.376;2023-02-13T00:23:28;66.50;;;33.50;;
6029;SDS011;3043;42.682;23.376;2023-02-13T00:25:54;64.67;;;33.37;;
6029;SDS011;3043;42.682;23.376;2023-02-13T00:28:19;66.10;;;34.27;;
6029;SDS011;3043;42.682;23.376;2023-02-13T00:30:45;67.33;;;35.27;;
6029;SDS011;3043;42.682;23.376;2023-02-13T00:33:10;66.03;;;33.80;;
6029;SDS011;3043;42.682;23.376;2023-02-13T00:35:36;70.60;;;33.30;;
6029;SDS011;3043;42.682;23.376;2023-02-13T00:38:01;70.33;;;35.67;;
6029;SDS011;3043;42.682;23.376;2023-02-13T00:40:26;63.23;;;35.63;;
6029;SDS011;3043;42.682;23.376;2023-02-13T00:42:52;70.17;;;35.27;;
6029;SDS011;3043;42.682;23.376;2023-02-13T00:45:17;65.20;;;34.10;;
6029;SDS011;3043;42.682;23.376;2023-02-13T00:47:43;69.07;;;34.53;;
6029;SDS011;3043;42.682;23.376;2023-02-13T00:50:08;70.27;;;34.40;;
6029;SDS011;3043;42.682;23.376;2023-02-13T00:52:34;73.80;;;33.53;;
6029;SDS011;3043;42.682;23.376;2023-02-13T00:54:59;66.57;;;33.73;;
6029;SDS011;3043;42.682;23.376;2023-02-13T00:57:25;71.00;;;34.60;;
6029;SDS011;3043;42.682;23.376;2023-02-13T00:59:50;64.13;;;34.07;;
6029;SDS011;3043;42.682;23.376;2023-02-13T01:02:15;60.63;;;33.37;;
6029;SDS011;3043;42.682;23.376;2023-02-13T01:04:41;69.27;;;34.60;;
6029;SDS011;3043;42.682;23.376;2023-02-13T01:07:06;67.67;;;33.00;;
6029;SDS011;3043;42.682;23.376;2023-02-13T01:09:32;62.90;;;33.33;;
6029;SDS011;3043;42.682;23.376;2023-02-13T01:11:57;65.33;;;32.67;;
6029;SDS011;3043;42.682;23.376;2023-02-13T01:14:23;65.40;;;32.70;;
6029;SDS011;3043;42.682;23.376;2023-02-13T01:16:48;61.27;;;33.17;;
6029;SDS011;3043;42.682;23.376;2023-02-13T01:19:13;66.70;;;33.00;;
6029;SDS011;3043;42.682;23.376;2023-02-13T01:21:39;74.60;;;38.07;;
6029;SDS011;3043;42.682;23.376;2023-02-13T01:24:04;111.50;;;48.80;;
6029;SDS011;3043;42.682;23.376;2023-02-13T01:26:30;131.30;;;56.60;;
6029;SDS011;3043;42.682;23.376;2023-02-13T01:28:56;118.57;;;53.97;;
6029;SDS011;3043;42.682;23.376;2023-02-13T01:31:22;119.73;;;54.13;;
6029;SDS011;3043;42.682;23.376;2023-02-13T01:33:48;114.23;;;54.17;;
6029;SDS011;3043;42.682;23.376;2023-02-13T01:36:14;120.77;;;52.87;;
6029;SDS011;3043;42.682;23.376;2023-02-13T01:38:40;121.73;;;53.87;;
6029;SDS011;3043;42.682;23.376;2023-02-13T01:41:06;124.20;;;53.70;;
6029;SDS011;3043;42.682;23.376;2023-02-13T01:43:42;119.70;;;54.77;;
6029;SDS011;3043;42.682;23.376;2023-02-13T01:46:08;118.53;;;53.03;;
6029;SDS011;3043;42.682;23.376;2023-02-13T01:48:35;110.13;;;49.93;;
6029;SDS011;3043;42.682;23.376;2023-02-13T01:51:01;111.97;;;52.00;;
6029;SDS011;3043;42.682;23.376;2023-02-13T01:56:22;102.67;;;49.63;;
6029;SDS011;3043;42.682;23.376;2023-02-13T01:59:00;90.43;;;44.03;;
6029;SDS011;3043;42.682;23.376;2023-02-13T02:01:30;100.73;;;46.17;;
6029;SDS011;3043;42.682;23.376;2023-02-13T02:03:57;107.63;;;48.47;;
6029;SDS011;3043;42.682;23.376;2023-02-13T02:06:29;102.33;;;47.23;;
6029;SDS011;3043;42.682;23.376;2023-02-13T02:08:59;102.93;;;47.40;;
6029;SDS011;3043;42.682;23.376;2023-02-13T02:11:35;113.73;;;49.67;;
6029;SDS011;3043;42.682;23.376;2023-02-13T02:14:02;87.53;;;43.10;;
6029;SDS011;3043;42.682;23.376;2023-02-13T02:16:28;95.40;;;45.40;;
6029;SDS011;3043;42.682;23.376;2023-02-13T02:18:54;85.27;;;42.87;;
6029;SDS011;3043;42.682;23.376;2023-02-13T02:21:28;76.73;;;36.87;;
6029;SDS011;3043;42.682;23.376;2023-02-13T02:29:48;76.60;;;36.87;;
6029;SDS011;3043;42.682;23.376;2023-02-13T02:45:55;66.87;;;32.53;;
6029;SDS011;3043;42.682;23.376;2023-02-13T02:51:23;68.73;;;32.97;;
6029;SDS011;3043;42.682;23.376;2023-02-13T02:56:25;62.53;;;32.60;;
6029;SDS011;3043;42.682;23.376;2023-02-13T02:59:06;183.03;;;80.33;;
6029;SDS011;3043;42.682;23.376;2023-02-13T03:01:54;129.83;;;62.13;;
6029;SDS011;3043;42.682;23.376;2023-02-13T03:04:41;119.83;;;56.23;;
6029;SDS011;3043;42.682;23.376;2023-02-13T03:07:29;117.63;;;55.47;;
6029;SDS011;3043;42.682;23.376;2023-02-13T03:09:55;115.20;;;56.70;;
6029;SDS011;3043;42.682;23.376;2023-02-13T03:12:48;111.67;;;53.53;;
6029;SDS011;3043;42.682;23.376;2023-02-13T03:15:34;124.23;;;56.70;;
6029;SDS011;3043;42.682;23.376;2023-02-13T03:18:21;116.13;;;55.87;;
6029;SDS011;3043;42.682;23.376;2023-02-13T03:21:10;118.73;;;57.37;;
6029;SDS011;3043;42.682;23.376;2023-02-13T03:24:08;130.20;;;59.90;;
6029;SDS011;3043;42.682;23.376;2023-02-13T03:26:50;125.10;;;54.83;;
6029;SDS011;3043;42.682;23.376;2023-02-13T03:29:31;120.73;;;55.60;;
6029;SDS011;3043;42.682;23.376;2023-02-13T03:38:23;117.33;;;54.40;;
6029;SDS011;3043;42.682;23.376;2023-02-13T03:40:58;129.50;;;57.23;;
6029;SDS011;3043;42.682;23.376;2023-02-13T03:46:30;116.23;;;57.67;;
6029;SDS011;3043;42.682;23.376;2023-02-13T03:49:02;112.93;;;56.20;;
6029;SDS011;3043;42.682;23.376;2023-02-13T03:54:56;119.03;;;56.63;;
6029;SDS011;3043;42.682;23.376;2023-02-13T03:57:43;115.10;;;57.57;;
6029;SDS011;3043;42.682;23.376;2023-02-13T04:00:33;125.67;;;55.30;;
6029;SDS011;3043;42.682;23.376;2023-02-13T04:03:18;122.90;;;56.00;;
6029;SDS011;3043;42.682;23.376;2023-02-13T04:09:04;111.37;;;54.50;;
6029;SDS011;3043;42.682;23.376;2023-02-13T04:14:20;106.33;;;51.70;;
6029;SDS011;3043;42.682;23.376;2023-02-13T04:16:55;99.47;;;48.23;;
6029;SDS011;3043;42.682;23.376;2023-02-13T04:19:27;115.60;;;53.40;;
6029;SDS011;3043;42.682;23.376;2023-02-13T04:21:56;101.83;;;50.10;;
6029;SDS011;3043;42.682;23.376;2023-02-13T04:24:24;109.07;;;52.37;;
6029;SDS011;3043;42.682;23.376;2023-02-13T04:26:51;111.57;;;51.57;;
6029;SDS011;3043;42.682;23.376;2023-02-13T04:29:18;98.43;;;48.67;;
6029;SDS011;3043;42.682;23.376;2023-02-13T04:31:45;76.57;;;41.13;;
6029;SDS011;3043;42.682;23.376;2023-02-13T04:34:10;83.77;;;40.83;;
6029;SDS011;3043;42.682;23.376;2023-02-13T04:36:36;105.80;;;54.13;;
6029;SDS011;3043;42.682;23.376;2023-02-13T04:39:01;99.20;;;48.47;;
6029;SDS011;3043;42.682;23.376;2023-02-13T04:41:27;95.87;;;50.63;;
6029;SDS011;3043;42.682;23.376;2023-02-13T04:43:52;99.37;;;52.83;;
6029;SDS011;3043;42.682;23.376;2023-02-13T04:46:18;103.00;;;50.10;;
6029;SDS011;3043;42.682;23.376;2023-02-13T04:48:43;103.87;;;47.87;;
6029;SDS011;3043;42.682;23.376;2023-02-13T04:51:08;90.23;;;45.63;;
6029;SDS011;3043;42.682;23.376;2023-02-13T04:53:34;97.63;;;49.30;;
6029;SDS011;3043;42.682;23.376;2023-02-13T04:55:59;95.23;;;48.13;;
6029;SDS011;3043;42.682;23.376;2023-02-13T04:58:25;98.90;;;46.53;;
6029;SDS011;3043;42.682;23.376;2023-02-13T05:00:50;98.87;;;48.33;;
6029;SDS011;3043;42.682;23.376;2023-02-13T05:03:16;110.57;;;50.50;;
6029;SDS011;3043;42.682;23.376;2023-02-13T05:05:41;108.07;;;51.50;;
6029;SDS011;3043;42.682;23.376;2023-02-13T05:08:07;112.67;;;53.37;;
6029;SDS011;3043;42.682;23.376;2023-02-13T05:10:34;104.83;;;51.83;;
6029;SDS011;3043;42.682;23.376;2023-02-13T05:13:00;100.33;;;49.90;;
6029;SDS011;3043;42.682;23.376;2023-02-13T05:15:25;109.43;;;53.23;;
6029;SDS011;3043;42.682;23.376;2023-02-13T05:17:51;126.43;;;63.17;;
6029;SDS011;3043;42.682;23.376;2023-02-13T05:20:17;109.87;;;55.87;;
6029;SDS011;3043;42.682;23.376;2023-02-13T05:22:47;121.63;;;61.00;;
6029;SDS011;3043;42.682;23.376;2023-02-13T05:25:32;156.97;;;77.80;;
6029;SDS011;3043;42.682;23.376;2023-02-13T05:27:58;136.67;;;64.97;;
6029;SDS011;3043;42.682;23.376;2023-02-13T05:30:24;168.87;;;84.77;;
6029;SDS011;3043;42.682;23.376;2023-02-13T05:32:50;138.70;;;71.13;;
6029;SDS011;3043;42.682;23.376;2023-02-13T05:35:16;140.10;;;69.93;;
6029;SDS011;3043;42.682;23.376;2023-02-13T05:37:45;115.83;;;58.10;;
6029;SDS011;3043;42.682;23.376;2023-02-13T05:40:11;98.90;;;51.20;;
6029;SDS011;3043;42.682;23.376;2023-02-13T05:42:37;104.33;;;51.53;;
6029;SDS011;3043;42.682;23.376;2023-02-13T05:45:03;103.37;;;53.67;;
6029;SDS011;3043;42.682;23.376;2023-02-13T05:47:29;105.83;;;53.17;;
6029;SDS011;3043;42.682;23.376;2023-02-13T05:49:54;90.77;;;46.73;;
6029;SDS011;3043;42.682;23.376;2023-02-13T05:52:20;83.60;;;41.97;;
6029;SDS011;3043;42.682;23.376;2023-02-13T05:54:45;78.33;;;41.40;;
6029;SDS011;3043;42.682;23.376;2023-02-13T05:57:11;79.50;;;41.00;;
6029;SDS011;3043;42.682;23.376;2023-02-13T05:59:37;71.63;;;38.27;;
6029;SDS011;3043;42.682;23.376;2023-02-13T06:02:02;78.80;;;40.50;;
6029;SDS011;3043;42.682;23.376;2023-02-13T06:04:28;86.87;;;40.37;;
6029;SDS011;3043;42.682;23.376;2023-02-13T06:06:53;75.17;;;39.80;;
6029;SDS011;3043;42.682;23.376;2023-02-13T06:09:19;82.30;;;40.63;;
6029;SDS011;3043;42.682;23.376;2023-02-13T06:11:44;79.63;;;39.87;;
6029;SDS011;3043;42.682;23.376;2023-02-13T06:14:10;79.27;;;41.10;;
6029;SDS011;3043;42.682;23.376;2023-02-13T06:16:36;78.63;;;40.10;;
6029;SDS011;3043;42.682;23.376;2023-02-13T06:19:01;83.43;;;43.73;;
6029;SDS011;3043;42.682;23.376;2023-02-13T06:21:27;88.17;;;43.57;;
6029;SDS011;3043;42.682;23.376;2023-02-13T06:23:52;78.90;;;42.83;;
6029;SDS011;3043;42.682;23.376;2023-02-13T06:26:18;84.00;;;44.20;;
6029;SDS011;3043;42.682;23.376;2023-02-13T06:28:43;88.23;;;44.53;;
6029;SDS011;3043;42.682;23.376;2023-02-13T06:31:09;86.00;;;42.00;;
6029;SDS011;3043;42.682;23.376;2023-02-13T06:33:34;85.77;;;44.60;;
6029;SDS011;3043;42.682;23.376;2023-02-13T06:36:00;80.70;;;43.00;;
6029;SDS011;3043;42.682;23.376;2023-02-13T06:38:25;88.33;;;45.90;;
6029;SDS011;3043;42.682;23.376;2023-02-13T06:40:51;84.57;;;43.17;;
6029;SDS011;3043;42.682;23.376;2023-02-13T06:43:16;84.43;;;41.83;;
6029;SDS011;3043;42.682;23.376;2023-02-13T06:45:43;82.63;;;42.90;;
6029;SDS011;3043;42.682;23.376;2023-02-13T06:48:11;84.63;;;44.43;;
6029;SDS011;3043;42.682;23.376;2023-02-13T06:50:36;75.27;;;39.83;;
6029;SDS011;3043;42.682;23.376;2023-02-13T06:53:02;85.50;;;42.23;;
6029;SDS011;3043;42.682;23.376;2023-02-13T06:55:27;81.00;;;43.63;;
6029;SDS011;3043;42.682;23.376;2023-02-13T06:57:53;80.60;;;42.60;;
6029;SDS011;3043;42.682;23.376;2023-02-13T07:00:18;80.40;;;44.43;;
6029;SDS011;3043;42.682;23.376;2023-02-13T07:02:45;76.07;;;40.00;;
6029;SDS011;3043;42.682;23.376;2023-02-13T07:05:11;74.03;;;41.47;;
6029;SDS011;3043;42.682;23.376;2023-02-13T07:07:38;72.73;;;38.13;;
6029;SDS011;3043;42.682;23.376;2023-02-13T07:10:06;77.53;;;39.70;;
6029;SDS011;3043;42.682;23.376;2023-02-13T07:12:33;73.37;;;41.10;;
6029;SDS011;3043;42.682;23.376;2023-02-13T07:15:00;79.43;;;44.40;;
6029;SDS011;3043;42.682;23.376;2023-02-13T07:17:26;85.73;;;46.23;;
6029;SDS011;3043;42.682;23.376;2023-02-13T07:19:52;94.47;;;49.20;;
6029;SDS011;3043;42.682;23.376;2023-02-13T07:22:17;89.97;;;49.27;;
6029;SDS011;3043;42.682;23.376;2023-02-13T07:24:43;75.43;;;42.93;;
6029;SDS011;3043;42.682;23.376;2023-02-13T07:27:09;78.47;;;43.83;;
6029;SDS011;3043;42.682;23.376;2023-02-13T07:29:34;71.37;;;41.27;;
6029;SDS011;3043;42.682;23.376;2023-02-13T07:32:00;87.00;;;46.90;;
6029;SDS011;3043;42.682;23.376;2023-02-13T07:34:25;115.33;;;57.90;;
6029;SDS011;3043;42.682;23.376;2023-02-13T07:36:51;109.93;;;56.13;;
6029;SDS011;3043;42.682;23.376;2023-02-13T07:39:16;96.53;;;52.13;;
6029;SDS011;3043;42.682;23.376;2023-02-13T07:41:43;86.40;;;47.57;;
6029;SDS011;3043;42.682;23.376;2023-02-13T07:44:08;83.63;;;46.70;;
6029;SDS011;3043;42.682;23.376;2023-02-13T07:46:34;75.17;;;40.97;;
6029;SDS011;3043;42.682;23.376;2023-02-13T07:48:59;78.87;;;43.27;;
6029;SDS011;3043;42.682;23.376;2023-02-13T07:51:25;72.87;;;40.63;;
6029;SDS011;3043;42.682;23.376;2023-02-13T07:53:51;69.40;;;38.57;;
6029;SDS011;3043;42.682;23.376;2023-02-13T07:56:16;75.07;;;39.70;;
6029;SDS011;3043;42.682;23.376;2023-02-13T07:58:42;68.00;;;38.03;;
6029;SDS011;3043;42.682;23.376;2023-02-13T08:01:09;62.00;;;35.97;;
6029;SDS011;3043;42.682;23.376;2023-02-13T08:03:36;67.07;;;36.80;;
6029;SDS011;3043;42.682;23.376;2023-02-13T08:06:02;58.40;;;32.93;;
6029;SDS011;3043;42.682;23.376;2023-02-13T08:08:28;58.30;;;32.97;;
6029;SDS011;3043;42.682;23.376;2023-02-13T08:10:53;55.57;;;33.87;;
6029;SDS011;3043;42.682;23.376;2023-02-13T08:13:38;63.43;;;32.47;;
6029;SDS011;3043;42.682;23.376;2023-02-13T08:16:04;59.07;;;32.33;;
6029;SDS011;3043;42.682;23.376;2023-02-13T08:18:30;57.77;;;33.03;;
6029;SDS011;3043;42.682;23.376;2023-02-13T08:20:55;59.97;;;35.10;;
6029;SDS011;3043;42.682;23.376;2023-02-13T08:23:20;62.67;;;35.27;;
6029;SDS011;3043;42.682;23.376;2023-02-13T08:25:46;68.50;;;37.70;;
6029;SDS011;3043;42.682;23.376;2023-02-13T08:28:13;71.93;;;38.63;;
6029;SDS011;3043;42.682;23.376;2023-02-13T08:30:39;60.07;;;35.17;;
6029;SDS011;3043;42.682;23.376;2023-02-13T08:33:05;61.43;;;36.07;;
6029;SDS011;3043;42.682;23.376;2023-02-13T08:35:30;63.50;;;37.47;;
6029;SDS011;3043;42.682;23.376;2023-02-13T08:37:56;64.53;;;36.73;;
6029;SDS011;3043;42.682;23.376;2023-02-13T08:40:25;65.20;;;37.00;;
6029;SDS011;3043;42.682;23.376;2023-02-13T08:42:51;68.60;;;36.47;;
6029;SDS011;3043;42.682;23.376;2023-02-13T08:45:16;63.67;;;37.97;;
6029;SDS011;3043;42.682;23.376;2023-02-13T08:47:42;65.03;;;36.73;;
6029;SDS011;3043;42.682;23.376;2023-02-13T08:50:07;60.93;;;36.03;;
6029;SDS011;3043;42.682;23.376;2023-02-13T08:52:33;66.30;;;36.13;;
6029;SDS011;3043;42.682;23.376;2023-02-13T08:54:58;62.93;;;35.73;;
6029;SDS011;3043;42.682;23.376;2023-02-13T08:57:24;59.07;;;33.80;;
6029;SDS011;3043;42.682;23.376;2023-02-13T08:59:49;57.60;;;33.43;;
6029;SDS011;3043;42.682;23.376;2023-02-13T09:02:15;57.70;;;32.17;;
6029;SDS011;3043;42.682;23.376;2023-02-13T09:04:40;63.60;;;33.20;;
6029;SDS011;3043;42.682;23.376;2023-02-13T09:07:06;56.87;;;32.70;;
6029;SDS011;3043;42.682;23.376;2023-02-13T09:09:31;59.93;;;33.03;;
6029;SDS011;3043;42.682;23.376;2023-02-13T09:11:57;56.40;;;33.50;;
6029;SDS011;3043;42.682;23.376;2023-02-13T09:14:23;66.87;;;34.80;;
6029;SDS011;3043;42.682;23.376;2023-02-13T09:16:48;63.23;;;33.83;;
6029;SDS011;3043;42.682;23.376;2023-02-13T09:19:14;66.20;;;34.30;;
6029;SDS011;3043;42.682;23.376;2023-02-13T09:21:39;66.33;;;35.37;;
6029;SDS011;3043;42.682;23.376;2023-02-13T09:24:08;56.23;;;34.00;;
6029;SDS011;3043;42.682;23.376;2023-02-13T09:26:34;59.73;;;34.03;;
6029;SDS011;3043;42.682;23.376;2023-02-13T09:29:00;57.13;;;32.90;;
6029;SDS011;3043;42.682;23.376;2023-02-13T09:31:26;59.33;;;32.03;;
6029;SDS011;3043;42.682;23.376;2023-02-13T09:33:51;54.03;;;29.23;;
6029;SDS011;3043;42.682;23.376;2023-02-13T09:36:17;55.20;;;31.53;;
6029;SDS011;3043;42.682;23.376;2023-02-13T09:38:45;55.00;;;30.50;;
6029;SDS011;3043;42.682;23.376;2023-02-13T09:43:53;54.63;;;31.03;;
6029;SDS011;3043;42.682;23.376;2023-02-13T09:46:36;59.93;;;31.80;;
6029;SDS011;3043;42.682;23.376;2023-02-13T09:49:07;56.63;;;31.57;;
6029;SDS011;3043;42.682;23.376;2023-02-13T09:51:38;63.23;;;34.70;;
6029;SDS011;3043;42.682;23.376;2023-02-13T09:54:06;64.50;;;35.87;;
6029;SDS011;3043;42.682;23.376;2023-02-13T10:04:59;53.87;;;31.50;;
6029;SDS011;3043;42.682;23.376;2023-02-13T10:10:33;58.40;;;32.67;;
6029;SDS011;3043;42.682;23.376;2023-02-13T10:13:30;53.57;;;31.77;;
6029;SDS011;3043;42.682;23.376;2023-02-13T10:16:11;54.67;;;31.63;;
6029;SDS011;3043;42.682;23.376;2023-02-13T10:18:56;58.60;;;34.40;;
6029;SDS011;3043;42.682;23.376;2023-02-13T10:21:28;59.40;;;34.10;;
6029;SDS011;3043;42.682;23.376;2023-02-13T10:23:58;63.57;;;33.50;;
6029;SDS011;3043;42.682;23.376;2023-02-13T10:26:33;53.00;;;31.77;;
6029;SDS011;3043;42.682;23.376;2023-02-13T10:29:32;53.23;;;31.50;;
6029;SDS011;3043;42.682;23.376;2023-02-13T10:32:27;50.03;;;30.43;;
6029;SDS011;3043;42.682;23.376;2023-02-13T10:35:20;53.70;;;30.37;;
6029;SDS011;3043;42.682;23.376;2023-02-13T10:37:52;52.17;;;30.40;;
6029;SDS011;3043;42.682;23.376;2023-02-13T10:40:20;54.53;;;31.47;;
6029;SDS011;3043;42.682;23.376;2023-02-13T10:42:58;48.67;;;28.33;;
6029;SDS011;3043;42.682;23.376;2023-02-13T10:56:42;47.57;;;29.93;;
6029;SDS011;3043;42.682;23.376;2023-02-13T11:02:30;43.03;;;27.43;;
6029;SDS011;3043;42.682;23.376;2023-02-13T11:05:17;44.67;;;28.27;;
6029;SDS011;3043;42.682;23.376;2023-02-13T11:07:46;46.33;;;28.83;;
6029;SDS011;3043;42.682;23.376;2023-02-13T11:10:20;46.20;;;28.53;;
6029;SDS011;3043;42.682;23.376;2023-02-13T11:12:47;48.63;;;29.27;;
6029;SDS011;3043;42.682;23.376;2023-02-13T11:17:47;45.83;;;29.37;;
6029;SDS011;3043;42.682;23.376;2023-02-13T11:25:58;41.77;;;25.47;;
6029;SDS011;3043;42.682;23.376;2023-02-13T11:28:24;36.93;;;24.57;;
6029;SDS011;3043;42.682;23.376;2023-02-13T11:30:51;43.17;;;26.87;;
6029;SDS011;3043;42.682;23.376;2023-02-13T11:33:21;37.97;;;25.20;;
6029;SDS011;3043;42.682;23.376;2023-02-13T11:35:50;40.30;;;25.07;;
6029;SDS011;3043;42.682;23.376;2023-02-13T11:38:29;40.50;;;25.77;;
6029;SDS011;3043;42.682;23.376;2023-02-13T11:41:13;40.77;;;24.00;;
6029;SDS011;3043;42.682;23.376;2023-02-13T11:43:49;38.40;;;23.77;;
6029;SDS011;3043;42.682;23.376;2023-02-13T11:46:25;40.27;;;24.90;;
6029;SDS011;3043;42.682;23.376;2023-02-13T11:48:59;35.77;;;23.60;;
6029;SDS011;3043;42.682;23.376;2023-02-13T11:51:42;36.93;;;22.97;;
6029;SDS011;3043;42.682;23.376;2023-02-13T11:57:19;33.57;;;21.60;;
6029;SDS011;3043;42.682;23.376;2023-02-13T11:59:47;34.90;;;21.27;;
6029;SDS011;3043;42.682;23.376;2023-02-13T12:04:54;33.33;;;20.17;;
6029;SDS011;3043;42.682;23.376;2023-02-13T12:07:39;30.17;;;18.83;;
6029;SDS011;3043;42.682;23.376;2023-02-13T12:10:17;31.87;;;17.53;;
6029;SDS011;3043;42.682;23.376;2023-02-13T12:15:42;28.07;;;16.77;;
6029;SDS011;3043;42.682;23.376;2023-02-13T12:18:18;29.60;;;17.80;;
6029;SDS011;3043;42.682;23.376;2023-02-13T12:28:22;26.17;;;13.67;;
6029;SDS011;3043;42.682;23.376;2023-02-13T12:36:57;21.57;;;12.53;;
6029;SDS011;3043;42.682;23.376;2023-02-13T12:39:37;22.03;;;12.37;;
6029;SDS011;3043;42.682;23.376;2023-02-13T12:45:01;21.23;;;13.20;;
6029;SDS011;3043;42.682;23.376;2023-02-13T12:47:29;21.47;;;12.20;;
6029;SDS011;3043;42.682;23.376;2023-02-13T13:06:56;17.63;;;9.40;;
6029;SDS011;3043;42.682;23.376;2023-02-13T13:12:16;18.37;;;10.77;;
6029;SDS011;3043;42.682;23.376;2023-02-13T13:17:58;18.67;;;11.07;;
6029;SDS011;3043;42.682;23.376;2023-02-13T13:20:34;17.73;;;11.03;;
6029;SDS011;3043;42.682;23.376;2023-02-13T13:25:55;25.90;;;14.60;;
6029;SDS011;3043;42.682;23.376;2023-02-13T13:28:40;22.60;;;12.47;;
6029;SDS011;3043;42.682;23.376;2023-02-13T13:31:09;18.53;;;10.40;;
6029;SDS011;3043;42.682;23.376;2023-02-13T13:33:38;19.73;;;11.93;;
6029;SDS011;3043;42.682;23.376;2023-02-13T13:44:48;19.80;;;11.53;;
6029;SDS011;3043;42.682;23.376;2023-02-13T13:50:02;20.33;;;10.53;;
6029;SDS011;3043;42.682;23.376;2023-02-13T13:52:31;20.93;;;12.53;;
6029;SDS011;3043;42.682;23.376;2023-02-13T13:54:59;21.83;;;12.70;;
6029;SDS011;3043;42.682;23.376;2023-02-13T13:57:56;21.03;;;11.50;;
6029;SDS011;3043;42.682;23.376;2023-02-13T14:00:27;19.60;;;11.63;;
6029;SDS011;3043;42.682;23.376;2023-02-13T14:07:48;19.07;;;11.27;;
6029;SDS011;3043;42.682;23.376;2023-02-13T14:33:55;19.90;;;12.17;;
6029;SDS011;3043;42.682;23.376;2023-02-13T14:36:31;21.27;;;11.47;;
6029;SDS011;3043;42.682;23.376;2023-02-13T14:39:03;33.83;;;16.70;;
6029;SDS011;3043;42.682;23.376;2023-02-13T14:44:39;22.80;;;12.33;;
6029;SDS011;3043;42.682;23.376;2023-02-13T14:47:34;22.63;;;13.00;;
6029;SDS011;3043;42.682;23.376;2023-02-13T14:50:05;22.07;;;12.50;;
6029;SDS011;3043;42.682;23.376;2023-02-13T14:52:32;23.27;;;13.33;;
6029;SDS011;3043;42.682;23.376;2023-02-13T14:57:36;20.57;;;11.67;;
6029;SDS011;3043;42.682;23.376;2023-02-13T15:00:08;22.93;;;12.90;;
6029;SDS011;3043;42.682;23.376;2023-02-13T15:02:43;22.57;;;13.03;;
6029;SDS011;3043;42.682;23.376;2023-02-13T15:05:14;30.50;;;13.23;;
6029;SDS011;3043;42.682;23.376;2023-02-13T15:07:48;21.30;;;12.90;;
6029;SDS011;3043;42.682;23.376;2023-02-13T15:12:55;21.30;;;12.17;;
6029;SDS011;3043;42.682;23.376;2023-02-13T15:15:26;23.67;;;12.67;;
6029;SDS011;3043;42.682;23.376;2023-02-13T15:18:00;20.57;;;12.20;;
6029;SDS011;3043;42.682;23.376;2023-02-13T15:20:31;26.03;;;13.93;;
6029;SDS011;3043;42.682;23.376;2023-02-13T15:22:58;22.37;;;11.60;;
6029;SDS011;3043;42.682;23.376;2023-02-13T15:25:32;22.63;;;12.27;;
6029;SDS011;3043;42.682;23.376;2023-02-13T15:28:00;20.47;;;12.50;;
6029;SDS011;3043;42.682;23.376;2023-02-13T15:30:32;19.93;;;12.00;;
6029;SDS011;3043;42.682;23.376;2023-02-13T15:33:14;19.17;;;11.97;;
6029;SDS011;3043;42.682;23.376;2023-02-13T15:35:44;24.67;;;12.67;;
6029;SDS011;3043;42.682;23.376;2023-02-13T15:41:02;20.00;;;11.87;;
6029;SDS011;3043;42.682;23.376;2023-02-13T15:43:34;22.97;;;12.13;;
6029;SDS011;3043;42.682;23.376;2023-02-13T15:46:07;22.77;;;12.63;;
6029;SDS011;3043;42.682;23.376;2023-02-13T15:48:45;21.77;;;12.53;;
6029;SDS011;3043;42.682;23.376;2023-02-13T15:51:18;22.73;;;13.10;;
6029;SDS011;3043;42.682;23.376;2023-02-13T15:53:49;21.53;;;13.27;;
6029;SDS011;3043;42.682;23.376;2023-02-13T15:56:16;22.87;;;13.40;;
6029;SDS011;3043;42.682;23.376;2023-02-13T15:58:42;20.03;;;12.73;;
6029;SDS011;3043;42.682;23.376;2023-02-13T16:01:08;25.37;;;13.67;;
6029;SDS011;3043;42.682;23.376;2023-02-13T16:03:34;21.70;;;13.10;;
6029;SDS011;3043;42.682;23.376;2023-02-13T16:06:01;26.07;;;13.43;;
6029;SDS011;3043;42.682;23.376;2023-02-13T16:08:36;21.90;;;13.83;;
6029;SDS011;3043;42.682;23.376;2023-02-13T16:17:01;21.97;;;13.63;;
6029;SDS011;3043;42.682;23.376;2023-02-13T16:25:21;24.63;;;14.00;;
6029;SDS011;3043;42.682;23.376;2023-02-13T16:27:48;26.43;;;15.70;;
6029;SDS011;3043;42.682;23.376;2023-02-13T16:30:34;24.93;;;14.83;;
6029;SDS011;3043;42.682;23.376;2023-02-13T16:35:36;28.47;;;15.50;;
6029;SDS011;3043;42.682;23.376;2023-02-13T16:38:03;27.23;;;15.53;;
6029;SDS011;3043;42.682;23.376;2023-02-13T16:51:24;28.03;;;16.20;;
6029;SDS011;3043;42.682;23.376;2023-02-13T16:54:04;25.03;;;16.03;;
6029;SDS011;3043;42.682;23.376;2023-02-13T17:04:48;33.80;;;19.97;;
6029;SDS011;3043;42.682;23.376;2023-02-13T17:07:41;33.47;;;19.43;;
6029;SDS011;3043;42.682;23.376;2023-02-13T17:10:34;32.30;;;18.50;;
6029;SDS011;3043;42.682;23.376;2023-02-13T17:13:00;33.13;;;19.57;;
6029;SDS011;3043;42.682;23.376;2023-02-13T17:15:29;32.87;;;19.57;;
6029;SDS011;3043;42.682;23.376;2023-02-13T17:17:56;32.27;;;18.80;;
6029;SDS011;3043;42.682;23.376;2023-02-13T17:20:29;28.50;;;18.53;;
6029;SDS011;3043;42.682;23.376;2023-02-13T17:22:57;35.33;;;19.07;;
6029;SDS011;3043;42.682;23.376;2023-02-13T17:25:25;32.17;;;20.23;;
6029;SDS011;3043;42.682;23.376;2023-02-13T17:27:52;34.87;;;20.23;;
6029;SDS011;3043;42.682;23.376;2023-02-13T17:30:20;32.90;;;19.77;;
6029;SDS011;3043;42.682;23.376;2023-02-13T17:32:48;30.13;;;18.77;;
6029;SDS011;3043;42.682;23.376;2023-02-13T17:35:17;31.50;;;19.83;;
6029;SDS011;3043;42.682;23.376;2023-02-13T17:37:43;33.23;;;20.07;;
6029;SDS011;3043;42.682;23.376;2023-02-13T17:40:14;33.37;;;20.23;;
6029;SDS011;3043;42.682;23.376;2023-02-13T17:42:42;37.80;;;20.23;;
6029;SDS011;3043;42.682;23.376;2023-02-13T17:45:10;32.50;;;18.37;;
6029;SDS011;3043;42.682;23.376;2023-02-13T17:47:38;32.90;;;19.67;;
6029;SDS011;3043;42.682;23.376;2023-02-13T17:50:04;31.30;;;18.20;;
6029;SDS011;3043;42.682;23.376;2023-02-13T17:52:30;30.57;;;18.87;;
6029;SDS011;3043;42.682;23.376;2023-02-13T17:54:56;32.93;;;19.70;;
6029;SDS011;3043;42.682;23.376;2023-02-13T17:57:22;32.23;;;18.90;;
6029;SDS011;3043;42.682;23.376;2023-02-13T17:59:47;37.13;;;19.83;;
6029;SDS011;3043;42.682;23.376;2023-02-13T18:02:14;35.67;;;18.63;;
6029;SDS011;3043;42.682;23.376;2023-02-13T18:04:41;31.67;;;19.27;;
6029;SDS011;3043;42.682;23.376;2023-02-13T18:07:08;32.23;;;19.93;;
6029;SDS011;3043;42.682;23.376;2023-02-13T18:09:34;33.87;;;19.97;;
6029;SDS011;3043;42.682;23.376;2023-02-13T18:12:00;36.47;;;20.67;;
6029;SDS011;3043;42.682;23.376;2023-02-13T18:14:28;31.90;;;19.77;;
6029;SDS011;3043;42.682;23.376;2023-02-13T18:16:54;31.90;;;20.13;;
6029;SDS011;3043;42.682;23.376;2023-02-13T18:19:20;35.57;;;22.40;;
6029;SDS011;3043;42.682;23.376;2023-02-13T18:21:45;34.53;;;18.87;;
6029;SDS011;3043;42.682;23.376;2023-02-13T18:24:11;36.17;;;20.80;;